logo
Search for airport 
image banner adimage banner adimage banner ad
image banner ad

SVOM - Banco Occidental De Descuento (Bod)

Located in El Rosal, Venezuela

ICAO - , IATA -

Data provided by Airmate  

General information

Coordinates: N10°29'35" W66°55'56"
Elevation is 2916 feet MSL.
 
View others Airports in Distrito Federal

Operational data

Special qualification required
Current time UTC:
Current local time:
METAR: SVMI 172000Z 09006KT 9999 SCT016 SCT080 32/27 Q1012
TAF: TAF SVMI 171600 1718/1818 07006KT 9999 FEW016 TX33/1718Z TN22/1807Z TEMPO 1718/1722 09008KT 9000 VCDZ SCT016 SCT070
View NOTAMs / SUP AIP / TFR affecting this airport [VIEW]
Communications frequencies: [VIEW]

Runways:

Airport contact information

Address: El Rosal Venezuela

Satellite view of SVOM